This is the latest recevied weather packets stored in our database for station/object 9M2MIN-1. If no packets are shown the sender has not sent any weather packets the latest 1 day(s).
| Time | Temp. | Humidity | Pressure | Rain* | Wind** | Luminosity | Snow |
|---|---|---|---|---|---|---|---|
| 1778054656 | 34.44° C | 56% | 1004.2 hPa | - | - | - | - |
| 1778054493 | 34.44° C | 56% | 1004.2 hPa | - | - | - | - |
| 1778053593 | 34.44° C | 58% | 1004.6 hPa | - | - | - | - |
| 1778052725 | 34.44° C | 58% | 1004.8 hPa | - | - | - | - |
| 1778052693 | 34.44° C | 58% | 1004.8 hPa | - | - | - | - |
| 1778051793 | 34.44° C | 56% | 1005.1 hPa | - | - | - | - |
| 1778050893 | 33.89° C | 59% | 1005.3 hPa | - | - | - | - |
| 1778045492 | 32.22° C | 73% | 1007.1 hPa | - | - | - | - |
| 1778044592 | 32.22° C | 72% | 1007.3 hPa | - | - | - | - |
| 1778042956 | 32.78° C | 69% | 1007.7 hPa | - | - | - | - |
| 1778042791 | 32.78° C | 69% | 1007.7 hPa | - | - | - | - |
| 1778041891 | 32.78° C | 71% | 1008 hPa | - | - | - | - |
| 1778040991 | 32.22° C | 72% | 1008.1 hPa | - | - | - | - |
| 1778040090 | 32.22° C | 73% | 1008.3 hPa | - | - | - | - |
| 1778039239 | 32.22° C | 73% | 1008.5 hPa | - | - | - | - |
| 1778039193 | 32.22° C | 73% | 1008.5 hPa | - | - | - | - |
| 1778038293 | 32.22° C | 73% | 1008.6 hPa | - | - | - | - |
| 1778037478 | 32.22° C | 74% | 1008.7 hPa | - | - | - | - |
| 1778037393 | 32.22° C | 74% | 1008.7 hPa | - | - | - | - |
| 1778035697 | 32.22° C | 76% | 1008.8 hPa | - | - | - | - |
| 1778034691 | 32.22° C | 77% | 1008.7 hPa | - | - | - | - |
| 1778033791 | 32.22° C | 78% | 1008.7 hPa | - | - | - | - |
| 1778032994 | 31.67° C | 79% | 1008.7 hPa | - | - | - | - |
| 1778031991 | 31.67° C | 79% | 1008.6 hPa | - | - | - | - |
| 1778031091 | 31.67° C | 79% | 1008.7 hPa | - | - | - | - |
* Rain since midnight (hover to see other rain measurements)
** Current wind speed in m/s (hover to see current wind gust speed)